createdAt,value
2023-07-08T00:00:59.928Z,993.23
2023-07-08T00:01:59.766Z,993.23
2023-07-08T00:02:59.774Z,993.20
2023-07-08T00:03:59.746Z,993.27
2023-07-08T00:04:59.698Z,993.29
2023-07-08T00:05:59.698Z,993.13
2023-07-08T00:06:59.694Z,993.16
2023-07-08T00:07:59.672Z,993.10
2023-07-08T00:08:59.695Z,993.16
2023-07-08T00:09:59.669Z,993.13
2023-07-08T00:10:59.871Z,993.14
2023-07-08T00:11:59.626Z,993.13
2023-07-08T00:12:59.642Z,993.12
2023-07-08T00:13:59.608Z,993.16
2023-07-08T00:14:59.604Z,993.06
2023-07-08T00:15:59.567Z,993.08
2023-07-08T00:16:59.683Z,993.06
2023-07-08T00:17:59.624Z,993.11
2023-07-08T00:18:59.562Z,993.08
2023-07-08T00:19:59.522Z,993.11
2023-07-08T00:20:59.721Z,993.11
2023-07-08T00:21:59.534Z,993.11
2023-07-08T00:22:59.486Z,993.10
2023-07-08T00:23:59.524Z,993.06
2023-07-08T00:24:59.473Z,993.07
2023-07-08T00:25:59.477Z,993.06
2023-07-08T00:26:59.471Z,993.10
2023-07-08T00:27:59.456Z,993.05
2023-07-08T00:28:59.420Z,993.08
2023-07-08T00:29:59.437Z,993.03
2023-07-08T00:30:59.636Z,993.04
2023-07-08T00:31:59.394Z,993.00
2023-07-08T00:32:59.471Z,992.99
2023-07-08T00:33:59.412Z,993.02
2023-07-08T00:34:59.354Z,993.03
2023-07-08T00:35:59.373Z,992.99
2023-07-08T00:36:59.377Z,992.99
2023-07-08T00:37:59.358Z,993.02
2023-07-08T00:38:59.318Z,993.02
2023-07-08T00:39:59.354Z,992.98
2023-07-08T00:40:59.662Z,993.00
2023-07-08T00:41:59.290Z,993.07
2023-07-08T00:42:59.298Z,993.06
2023-07-08T00:43:59.292Z,992.99
2023-07-08T00:44:59.252Z,993.01
2023-07-08T00:46:03.032Z,993.01
2023-07-08T00:47:00.309Z,993.05
2023-07-08T00:47:59.238Z,993.03
2023-07-08T00:48:59.226Z,993.08
2023-07-08T00:49:59.204Z,993.07
2023-07-08T00:50:59.607Z,993.13
2023-07-08T00:51:59.188Z,993.12
2023-07-08T00:52:59.184Z,993.06
2023-07-08T00:53:59.168Z,993.15
2023-07-08T00:54:59.158Z,993.07
2023-07-08T00:55:59.174Z,993.11
2023-07-08T00:56:59.125Z,993.05
2023-07-08T00:57:59.108Z,993.11
2023-07-08T00:58:59.134Z,993.09
2023-07-08T00:59:59.090Z,993.10
2023-07-08T01:00:59.300Z,993.10
2023-07-08T01:01:59.150Z,993.05
2023-07-08T01:02:59.195Z,993.10
2023-07-08T01:03:59.093Z,993.12
2023-07-08T01:04:59.058Z,993.14
2023-07-08T01:05:59.055Z,993.11
2023-07-08T01:06:59.022Z,993.16
2023-07-08T01:07:59.029Z,993.16
2023-07-08T01:08:59.009Z,993.08
2023-07-08T01:09:59.001Z,993.10
2023-07-08T01:11:00.856Z,993.14
2023-07-08T01:11:59.979Z,993.11
2023-07-08T01:12:58.970Z,993.12
2023-07-08T01:13:58.960Z,993.11
2023-07-08T01:14:58.917Z,993.07
2023-07-08T01:15:58.920Z,993.11
2023-07-08T01:16:58.931Z,993.03
2023-07-08T01:17:58.975Z,993.04
2023-07-08T01:18:58.867Z,993.07
2023-07-08T01:19:58.902Z,993.07
2023-07-08T01:20:59.175Z,993.04
2023-07-08T01:21:58.855Z,993.00
2023-07-08T01:22:58.860Z,993.03
2023-07-08T01:23:58.832Z,992.95
2023-07-08T01:24:58.801Z,993.02
2023-07-08T01:25:58.812Z,993.05
2023-07-08T01:26:58.807Z,992.98
2023-07-08T01:27:58.777Z,993.02
2023-07-08T01:28:58.785Z,993.00
2023-07-08T01:29:58.766Z,992.93
2023-07-08T01:30:59.182Z,993.00
2023-07-08T01:31:58.778Z,992.98
2023-07-08T01:32:58.849Z,992.94
2023-07-08T01:33:58.732Z,992.91
2023-07-08T01:34:58.696Z,992.91
2023-07-08T01:35:58.717Z,993.03
2023-07-08T01:36:58.684Z,992.97
2023-07-08T01:37:58.666Z,992.95
2023-07-08T01:38:58.672Z,992.97
2023-07-08T01:39:58.653Z,992.91
2023-07-08T01:40:59.070Z,992.96
2023-07-08T01:41:58.658Z,993.07
2023-07-08T01:42:58.637Z,992.96
2023-07-08T01:43:58.612Z,993.02
2023-07-08T01:44:58.578Z,992.98
2023-07-08T01:45:58.602Z,992.99
2023-07-08T01:46:58.629Z,992.92
2023-07-08T01:47:58.641Z,992.93
2023-07-08T01:48:58.525Z,992.97
2023-07-08T01:49:58.529Z,993.01
2023-07-08T01:50:59.171Z,992.95
2023-07-08T01:51:58.525Z,992.98
2023-07-08T01:52:58.524Z,992.92
2023-07-08T01:53:58.497Z,992.87
2023-07-08T01:54:58.457Z,992.87
2023-07-08T01:55:58.457Z,992.86
2023-07-08T01:56:58.484Z,992.90
2023-07-08T01:57:58.463Z,992.83
2023-07-08T01:58:58.414Z,992.81
2023-07-08T01:59:58.440Z,992.85
2023-07-08T02:00:58.632Z,992.83
2023-07-08T02:01:58.438Z,992.79
2023-07-08T02:02:58.495Z,992.86
2023-07-08T02:03:58.370Z,992.80
2023-07-08T02:04:58.384Z,992.84
2023-07-08T02:05:58.435Z,992.84
2023-07-08T02:06:58.356Z,992.80
2023-07-08T02:07:58.321Z,992.81
2023-07-08T02:08:58.328Z,992.81
2023-07-08T02:09:58.300Z,992.83
2023-07-08T02:10:58.559Z,992.82
2023-07-08T02:11:58.282Z,992.80
2023-07-08T02:12:58.318Z,992.83
2023-07-08T02:13:58.315Z,992.86
2023-07-08T02:14:58.255Z,992.92
2023-07-08T02:15:58.253Z,992.91
2023-07-08T02:16:58.239Z,992.84
2023-07-08T02:17:58.228Z,992.86
2023-07-08T02:18:58.185Z,992.84
2023-07-08T02:19:58.184Z,992.82
2023-07-08T02:20:58.369Z,992.82
2023-07-08T02:21:58.164Z,992.80
2023-07-08T02:22:58.161Z,992.85
2023-07-08T02:23:58.158Z,992.80
2023-07-08T02:24:58.118Z,992.85
2023-07-08T02:25:58.130Z,992.83
2023-07-08T02:26:58.121Z,992.82
2023-07-08T02:27:58.112Z,992.80
2023-07-08T02:28:58.090Z,992.82
2023-07-08T02:29:58.065Z,992.81
2023-07-08T02:30:58.343Z,992.78
2023-07-08T02:31:58.064Z,992.80
2023-07-08T02:32:58.416Z,992.82
2023-07-08T02:33:59.036Z,992.82
2023-07-08T02:34:58.001Z,992.81
2023-07-08T02:35:57.997Z,992.86
2023-07-08T02:36:58.015Z,992.86
2023-07-08T02:37:57.996Z,992.86
2023-07-08T02:38:57.961Z,992.96
2023-07-08T02:39:57.977Z,992.85
2023-07-08T02:40:58.047Z,992.90
2023-07-08T02:41:57.955Z,992.93
2023-07-08T02:42:57.961Z,992.85
2023-07-08T02:43:57.911Z,992.89
2023-07-08T02:44:57.895Z,992.87
2023-07-08T02:45:57.916Z,992.93
2023-07-08T02:46:57.903Z,992.86
2023-07-08T02:47:57.888Z,992.86
2023-07-08T02:48:57.884Z,992.83
2023-07-08T02:49:57.847Z,992.84
2023-07-08T02:50:57.973Z,992.87
2023-07-08T02:51:57.816Z,992.82
2023-07-08T02:52:57.858Z,992.91
2023-07-08T02:53:57.831Z,992.86
2023-07-08T02:54:57.775Z,992.87
2023-07-08T02:55:57.812Z,992.80
2023-07-08T02:56:57.775Z,992.84
2023-07-08T02:57:57.756Z,992.78
2023-07-08T02:58:57.763Z,992.83
2023-07-08T02:59:57.753Z,992.82
2023-07-08T03:00:57.741Z,992.87
2023-07-08T03:01:57.754Z,992.86
2023-07-08T03:02:57.819Z,992.88
2023-07-08T03:03:57.701Z,992.85
2023-07-08T03:04:57.704Z,992.83
2023-07-08T03:05:57.694Z,992.90
2023-07-08T03:06:57.650Z,992.84
2023-07-08T03:07:57.643Z,992.84
2023-07-08T03:08:57.665Z,992.90
2023-07-08T03:09:57.630Z,992.87
2023-07-08T03:10:58.012Z,992.87
2023-07-08T03:11:57.621Z,992.87
2023-07-08T03:12:57.590Z,992.92
2023-07-08T03:13:57.618Z,992.94
2023-07-08T03:14:57.605Z,992.97
2023-07-08T03:15:57.569Z,992.97
2023-07-08T03:16:57.589Z,992.94
2023-07-08T03:17:57.576Z,992.92
2023-07-08T03:18:57.534Z,992.95
2023-07-08T03:19:57.520Z,992.94
2023-07-08T03:20:57.741Z,992.92
2023-07-08T03:21:57.496Z,992.91
2023-07-08T03:22:57.488Z,992.90
2023-07-08T03:23:57.471Z,992.94
2023-07-08T03:24:57.447Z,993.00
2023-07-08T03:25:57.442Z,992.95
2023-07-08T03:26:57.457Z,992.93
2023-07-08T03:27:57.395Z,992.95
2023-07-08T03:28:57.420Z,992.98
2023-07-08T03:29:57.400Z,992.91
2023-07-08T03:30:57.416Z,992.89
2023-07-08T03:31:57.382Z,992.88
2023-07-08T03:32:57.449Z,992.90
2023-07-08T03:33:57.360Z,992.92
2023-07-08T03:34:57.320Z,992.97
2023-07-08T03:35:57.358Z,992.96
2023-07-08T03:36:57.288Z,992.95
2023-07-08T03:37:57.298Z,992.91
2023-07-08T03:38:57.318Z,992.98
2023-07-08T03:39:57.278Z,992.96
2023-07-08T03:40:57.346Z,992.93
2023-07-08T03:41:57.261Z,992.98
2023-07-08T03:42:57.264Z,993.04
2023-07-08T03:43:57.235Z,993.04
2023-07-08T03:44:57.246Z,993.07
2023-07-08T03:45:57.210Z,993.04
2023-07-08T03:46:57.195Z,993.05
2023-07-08T03:47:57.247Z,993.10
2023-07-08T03:48:57.197Z,993.02
2023-07-08T03:49:57.163Z,993.02
2023-07-08T03:50:57.264Z,993.04
2023-07-08T03:51:57.153Z,993.05
2023-07-08T03:52:57.153Z,993.09
2023-07-08T03:53:57.193Z,993.09
2023-07-08T03:54:57.097Z,993.05
2023-07-08T03:55:57.100Z,993.10
2023-07-08T03:56:57.125Z,993.08
2023-07-08T03:57:57.081Z,993.11
2023-07-08T03:58:57.045Z,993.12
2023-07-08T03:59:57.090Z,993.13
2023-07-08T04:00:57.037Z,993.04
2023-07-08T04:01:57.237Z,993.07
2023-07-08T04:02:57.089Z,993.09
2023-07-08T04:03:57.145Z,993.15
2023-07-08T04:04:57.020Z,993.08
2023-07-08T04:05:57.147Z,993.04
2023-07-08T04:06:57.043Z,993.16
2023-07-08T04:07:56.951Z,993.06
2023-07-08T04:08:57.000Z,993.06
2023-07-08T04:09:56.951Z,993.08
2023-07-08T04:10:56.916Z,993.03
2023-07-08T04:11:56.907Z,993.07
2023-07-08T04:12:56.918Z,993.06
2023-07-08T04:13:56.914Z,993.00
2023-07-08T04:14:56.877Z,993.04
2023-07-08T04:15:56.892Z,993.06
2023-07-08T04:16:56.952Z,993.06
2023-07-08T04:17:56.902Z,993.04
2023-07-08T04:18:56.854Z,993.03
2023-07-08T04:19:56.833Z,993.07
2023-07-08T04:21:57.807Z,993.07
2023-07-08T04:22:56.798Z,993.13
2023-07-08T04:23:56.778Z,993.18
2023-07-08T04:24:56.754Z,993.15
2023-07-08T04:25:56.769Z,993.08
2023-07-08T04:26:56.771Z,993.08
2023-07-08T04:27:56.737Z,993.12
2023-07-08T04:28:56.730Z,993.08
2023-07-08T04:29:57.711Z,993.13
2023-07-08T04:30:56.744Z,993.12
2023-07-08T04:31:56.669Z,993.07
2023-07-08T04:32:56.717Z,993.06
2023-07-08T04:33:56.678Z,993.04
2023-07-08T04:34:56.663Z,993.06
2023-07-08T04:35:56.649Z,993.02
2023-07-08T04:36:56.666Z,993.00
2023-07-08T04:37:56.631Z,993.03
2023-07-08T04:38:56.588Z,993.06
2023-07-08T04:39:56.620Z,993.05
2023-07-08T04:40:56.652Z,993.03
2023-07-08T04:41:56.586Z,993.00
2023-07-08T04:42:56.593Z,993.01
2023-07-08T04:43:56.557Z,993.07
2023-07-08T04:44:56.528Z,993.00
2023-07-08T04:45:56.614Z,992.99
2023-07-08T04:46:56.564Z,993.02
2023-07-08T04:47:56.576Z,993.04
2023-07-08T04:48:56.519Z,993.01
2023-07-08T04:49:56.516Z,992.95
2023-07-08T04:50:56.461Z,993.00
2023-07-08T04:51:57.471Z,992.98
2023-07-08T04:52:56.508Z,993.00
2023-07-08T04:53:56.463Z,992.97
2023-07-08T04:54:56.427Z,992.94
2023-07-08T04:55:56.476Z,992.93
2023-07-08T04:56:56.437Z,992.92
2023-07-08T04:57:56.418Z,992.90
2023-07-08T04:58:56.395Z,992.91
2023-07-08T04:59:56.396Z,992.91
2023-07-08T05:00:56.410Z,992.89
2023-07-08T05:01:56.412Z,992.91
2023-07-08T05:02:56.399Z,992.92
2023-07-08T05:03:56.406Z,992.93
2023-07-08T05:04:56.328Z,992.94
2023-07-08T05:05:56.331Z,992.92
2023-07-08T05:06:56.351Z,992.89
2023-07-08T05:07:56.309Z,992.85
2023-07-08T05:08:56.295Z,992.90
2023-07-08T05:09:56.294Z,992.86
2023-07-08T05:10:56.287Z,992.87
2023-07-08T05:11:56.241Z,992.83
2023-07-08T05:12:56.266Z,992.87
2023-07-08T05:13:56.267Z,992.85
2023-07-08T05:14:56.213Z,992.87
2023-07-08T05:15:56.278Z,992.85
2023-07-08T05:16:56.237Z,992.84
2023-07-08T05:17:56.257Z,992.87
2023-07-08T05:18:56.165Z,992.86
2023-07-08T05:19:56.204Z,992.84
2023-07-08T05:20:56.139Z,992.89
2023-07-08T05:21:56.147Z,992.89
2023-07-08T05:22:56.158Z,992.87
2023-07-08T05:23:56.136Z,992.89
2023-07-08T05:24:56.112Z,992.83
2023-07-08T05:25:56.113Z,992.79
2023-07-08T05:26:56.119Z,992.84
2023-07-08T05:27:56.096Z,992.83
2023-07-08T05:28:56.084Z,992.83
2023-07-08T05:29:56.071Z,992.84
2023-07-08T05:30:56.072Z,992.82
2023-07-08T05:31:56.082Z,992.82
2023-07-08T05:32:56.075Z,992.79
2023-07-08T05:33:56.029Z,992.75
2023-07-08T05:34:56.022Z,992.75
2023-07-08T05:35:55.988Z,992.78
2023-07-08T05:36:56.016Z,992.77
2023-07-08T05:37:55.977Z,992.70
2023-07-08T05:38:55.967Z,992.71
2023-07-08T05:39:55.948Z,992.70
2023-07-08T05:40:55.960Z,992.70
2023-07-08T05:41:55.935Z,992.69
2023-07-08T05:42:55.908Z,992.70
2023-07-08T05:43:55.938Z,992.76
2023-07-08T05:44:55.884Z,992.76
2023-07-08T05:46:10.425Z,992.73
2023-07-08T05:46:57.962Z,992.75
2023-07-08T05:47:55.872Z,992.80
2023-07-08T05:48:56.333Z,992.79
2023-07-08T05:49:55.864Z,992.81
2023-07-08T05:50:55.868Z,992.74
2023-07-08T05:51:55.811Z,992.74
2023-07-08T05:52:55.831Z,992.76
2023-07-08T05:53:55.808Z,992.76
2023-07-08T05:54:55.789Z,992.71
2023-07-08T05:55:55.785Z,992.68
2023-07-08T05:56:55.784Z,992.67
2023-07-08T05:57:55.760Z,992.69
2023-07-08T05:58:55.743Z,992.67
2023-07-08T05:59:55.740Z,992.72
2023-07-08T06:00:55.841Z,992.73
2023-07-08T06:01:56.026Z,992.71
2023-07-08T06:02:55.728Z,992.73
2023-07-08T06:03:55.788Z,992.69
2023-07-08T06:04:55.705Z,992.73
2023-07-08T06:05:55.678Z,992.66
2023-07-08T06:06:55.658Z,992.73
2023-07-08T06:07:55.682Z,992.67
2023-07-08T06:08:55.606Z,992.68
2023-07-08T06:09:55.631Z,992.66
2023-07-08T06:10:55.651Z,992.61
2023-07-08T06:11:55.615Z,992.63
2023-07-08T06:12:55.561Z,992.60
2023-07-08T06:13:55.609Z,992.61
2023-07-08T06:14:55.592Z,992.58
2023-07-08T06:15:55.584Z,992.59
2023-07-08T06:16:55.650Z,992.58
2023-07-08T06:17:55.580Z,992.62
2023-07-08T06:18:55.522Z,992.60
2023-07-08T06:19:55.522Z,992.60
2023-07-08T06:20:55.509Z,992.59
2023-07-08T06:21:59.346Z,992.59
2023-07-08T06:22:56.463Z,992.63
2023-07-08T06:23:55.481Z,992.64
2023-07-08T06:24:55.482Z,992.61
2023-07-08T06:25:55.464Z,992.56
2023-07-08T06:27:56.431Z,992.66
2023-07-08T06:28:55.423Z,992.67
2023-07-08T06:29:55.402Z,992.62
2023-07-08T06:30:55.420Z,992.75
2023-07-08T06:31:55.528Z,992.68
2023-07-08T06:32:55.454Z,992.70
2023-07-08T06:33:55.366Z,992.68
2023-07-08T06:34:55.385Z,992.61
2023-07-08T06:35:55.345Z,992.69
2023-07-08T06:36:55.333Z,992.68
2023-07-08T06:37:55.317Z,992.57
2023-07-08T06:38:55.328Z,992.73
2023-07-08T06:39:55.290Z,992.60
2023-07-08T06:40:55.303Z,992.61
2023-07-08T06:41:55.285Z,992.58
2023-07-08T06:42:55.256Z,992.64
2023-07-08T06:43:55.254Z,992.68
2023-07-08T06:44:55.276Z,992.69
2023-07-08T06:45:55.263Z,992.66
2023-07-08T06:46:55.207Z,992.69
2023-07-08T06:47:55.279Z,992.69
2023-07-08T06:48:55.186Z,992.66
2023-07-08T06:49:57.442Z,992.66
2023-07-08T06:50:55.199Z,992.68
2023-07-08T06:51:55.177Z,992.60
2023-07-08T06:52:55.140Z,992.64
2023-07-08T06:53:55.144Z,992.64
2023-07-08T06:54:55.171Z,992.59
2023-07-08T06:55:55.114Z,992.59
2023-07-08T06:56:55.141Z,992.58
2023-07-08T06:57:55.108Z,992.59
2023-07-08T06:58:55.089Z,992.61
2023-07-08T06:59:55.092Z,992.57
2023-07-08T07:00:55.144Z,992.55
2023-07-08T07:01:55.124Z,992.54
2023-07-08T07:02:55.080Z,992.51
2023-07-08T07:03:55.091Z,992.55
2023-07-08T07:04:55.039Z,992.56
2023-07-08T07:05:55.018Z,992.52
2023-07-08T07:06:55.021Z,992.53
2023-07-08T07:07:55.012Z,992.52
2023-07-08T07:08:54.988Z,992.55
2023-07-08T07:09:54.982Z,992.52
2023-07-08T07:10:54.996Z,992.57
2023-07-08T07:11:54.940Z,992.54
2023-07-08T07:12:54.972Z,992.57
2023-07-08T07:13:54.962Z,992.54
2023-07-08T07:14:54.946Z,992.58
2023-07-08T07:15:54.944Z,992.56
2023-07-08T07:17:07.235Z,992.55
2023-07-08T07:17:57.004Z,992.52
2023-07-08T07:18:54.864Z,992.62
2023-07-08T07:19:54.917Z,992.58
2023-07-08T07:20:54.854Z,992.57
2023-07-08T07:21:54.848Z,992.60
2023-07-08T07:22:54.899Z,992.61
2023-07-08T07:23:54.836Z,992.64
2023-07-08T07:24:54.803Z,992.66
2023-07-08T07:25:54.860Z,992.69
2023-07-08T07:26:54.814Z,992.72
2023-07-08T07:27:54.774Z,992.75
2023-07-08T07:28:54.797Z,992.71
2023-07-08T07:29:54.770Z,992.72
2023-07-08T07:30:54.782Z,992.72
2023-07-08T07:31:54.747Z,992.69
2023-07-08T07:32:54.768Z,992.69
2023-07-08T07:33:54.736Z,992.69
2023-07-08T07:34:54.709Z,992.75
2023-07-08T07:35:54.695Z,992.71
2023-07-08T07:36:56.644Z,992.62
2023-07-08T07:37:54.697Z,992.60
2023-07-08T07:38:54.661Z,992.63
2023-07-08T07:39:54.657Z,992.63
2023-07-08T07:40:54.671Z,992.63
2023-07-08T07:41:54.649Z,992.52
2023-07-08T07:42:54.616Z,992.55
2023-07-08T07:43:54.638Z,992.54
2023-07-08T07:44:54.595Z,992.53
2023-07-08T07:45:54.596Z,992.56
2023-07-08T07:46:54.729Z,992.56
2023-07-08T07:47:54.599Z,992.58
2023-07-08T07:48:54.566Z,992.55
2023-07-08T07:49:54.563Z,992.57
2023-07-08T07:50:54.558Z,992.55
2023-07-08T07:51:54.539Z,992.61
2023-07-08T07:52:54.551Z,992.63
2023-07-08T07:53:54.545Z,992.52
2023-07-08T07:54:54.498Z,992.65
2023-07-08T07:55:54.541Z,992.59
2023-07-08T07:56:54.496Z,992.63
2023-07-08T07:57:54.471Z,992.60
2023-07-08T07:58:54.487Z,992.62
2023-07-08T07:59:54.486Z,992.60
2023-07-08T08:00:54.438Z,992.57
2023-07-08T08:01:54.499Z,992.60
2023-07-08T08:02:54.466Z,992.63
2023-07-08T08:03:54.462Z,992.63
2023-07-08T08:04:54.406Z,992.63
2023-07-08T08:05:54.385Z,992.57
2023-07-08T08:06:54.423Z,992.65
2023-07-08T08:07:54.392Z,992.58
2023-07-08T08:08:54.346Z,992.67
2023-07-08T08:09:54.354Z,992.60
2023-07-08T08:10:54.378Z,992.62
2023-07-08T08:11:54.366Z,992.64
2023-07-08T08:12:54.600Z,992.65
2023-07-08T08:13:54.359Z,992.61
2023-07-08T08:14:54.331Z,992.65
2023-07-08T08:15:54.275Z,992.68
2023-07-08T08:16:54.378Z,992.69
2023-07-08T08:17:54.332Z,992.63
2023-07-08T08:18:54.256Z,992.71
2023-07-08T08:19:54.264Z,992.63
2023-07-08T08:20:54.285Z,992.68
2023-07-08T08:21:54.245Z,992.66
2023-07-08T08:22:54.207Z,992.67
2023-07-08T08:23:54.277Z,992.68
2023-07-08T08:24:54.205Z,992.72
2023-07-08T08:25:54.191Z,992.68
2023-07-08T08:26:54.208Z,992.69
2023-07-08T08:27:54.177Z,992.71
2023-07-08T08:28:54.171Z,992.73
2023-07-08T08:29:54.174Z,992.74
2023-07-08T08:30:54.191Z,992.75
2023-07-08T08:31:55.118Z,992.77
2023-07-08T08:32:54.167Z,992.76
2023-07-08T08:33:54.154Z,992.73
2023-07-08T08:34:54.101Z,992.70
2023-07-08T08:35:54.105Z,992.73
2023-07-08T08:36:54.100Z,992.71
2023-07-08T08:37:54.073Z,992.74
2023-07-08T08:38:54.062Z,992.77
2023-07-08T08:39:54.060Z,992.71
2023-07-08T08:40:54.096Z,992.77
2023-07-08T08:41:54.077Z,992.73
2023-07-08T08:42:54.025Z,992.76
2023-07-08T08:43:55.622Z,992.76
2023-07-08T08:44:54.025Z,992.73
2023-07-08T08:45:54.013Z,992.68
2023-07-08T08:46:54.103Z,992.73
2023-07-08T08:47:54.053Z,992.73
2023-07-08T08:48:53.947Z,992.75
2023-07-08T08:49:53.950Z,992.77
2023-07-08T08:50:53.968Z,992.67
2023-07-08T08:51:53.957Z,992.64
2023-07-08T08:52:53.946Z,992.66
2023-07-08T08:53:53.925Z,992.68
2023-07-08T08:54:53.939Z,992.65
2023-07-08T08:55:53.885Z,992.64
2023-07-08T08:56:53.960Z,992.61
2023-07-08T08:57:53.873Z,992.60
2023-07-08T08:58:53.851Z,992.67
2023-07-08T08:59:53.902Z,992.66
2023-07-08T09:00:53.882Z,992.64
2023-07-08T09:01:53.872Z,992.68
2023-07-08T09:02:53.838Z,992.69
2023-07-08T09:03:53.866Z,992.62
2023-07-08T09:04:53.797Z,992.58
2023-07-08T09:05:53.796Z,992.64
2023-07-08T09:06:54.194Z,992.65
2023-07-08T09:07:54.782Z,992.63
2023-07-08T09:08:53.752Z,992.62
2023-07-08T09:09:53.786Z,992.64
2023-07-08T09:10:53.756Z,992.67
2023-07-08T09:11:53.767Z,992.68
2023-07-08T09:12:53.702Z,992.59
2023-07-08T09:13:53.764Z,992.56
2023-07-08T09:14:53.718Z,992.64
2023-07-08T09:15:53.692Z,992.62
2023-07-08T09:16:53.706Z,992.57
2023-07-08T09:17:53.705Z,992.57
2023-07-08T09:18:53.681Z,992.56
2023-07-08T09:19:53.633Z,992.57
2023-07-08T09:20:53.671Z,992.54
2023-07-08T09:21:53.657Z,992.54
2023-07-08T09:22:53.712Z,992.61
2023-07-08T09:23:53.638Z,992.49
2023-07-08T09:24:53.628Z,992.52
2023-07-08T09:25:53.619Z,992.53
2023-07-08T09:26:53.588Z,992.54
2023-07-08T09:27:53.602Z,992.53
2023-07-08T09:28:53.544Z,992.50
2023-07-08T09:29:53.566Z,992.51
2023-07-08T09:30:53.580Z,992.48
2023-07-08T09:31:53.577Z,992.51
2023-07-08T09:32:53.529Z,992.47
2023-07-08T09:33:53.505Z,992.44
2023-07-08T09:34:53.560Z,992.45
2023-07-08T09:35:53.541Z,992.47
2023-07-08T09:36:53.504Z,992.48
2023-07-08T09:37:53.509Z,992.45
2023-07-08T09:38:53.464Z,992.46
2023-07-08T09:39:53.441Z,992.45
2023-07-08T09:40:53.442Z,992.37
2023-07-08T09:41:53.450Z,992.39
2023-07-08T09:42:53.412Z,992.41
2023-07-08T09:43:53.405Z,992.39
2023-07-08T09:44:53.410Z,992.39
2023-07-08T09:45:53.411Z,992.42
2023-07-08T09:46:53.429Z,992.39
2023-07-08T09:47:53.407Z,992.41
2023-07-08T09:48:53.380Z,992.39
2023-07-08T09:49:53.343Z,992.39
2023-07-08T09:50:53.307Z,992.36
2023-07-08T09:51:53.325Z,992.32
2023-07-08T09:52:53.312Z,992.38
2023-07-08T09:53:53.294Z,992.43
2023-07-08T09:54:53.296Z,992.37
2023-07-08T09:55:53.277Z,992.48
2023-07-08T09:56:53.246Z,992.44
2023-07-08T09:57:53.275Z,992.45
2023-07-08T09:58:53.278Z,992.43
2023-07-08T09:59:53.202Z,992.39
2023-07-08T10:00:53.244Z,992.37
2023-07-08T10:01:53.240Z,992.37
2023-07-08T10:02:53.267Z,992.43
2023-07-08T10:03:53.213Z,992.39
2023-07-08T10:04:53.206Z,992.35
2023-07-08T10:05:53.178Z,992.28
2023-07-08T10:06:53.164Z,992.32
2023-07-08T10:07:53.165Z,992.30
2023-07-08T10:08:53.109Z,992.27
2023-07-08T10:09:54.127Z,992.28
2023-07-08T10:10:53.141Z,992.38
2023-07-08T10:11:53.235Z,992.32
2023-07-08T10:12:53.115Z,992.35
2023-07-08T10:14:11.634Z,992.25
2023-07-08T10:14:55.094Z,992.28
2023-07-08T10:15:53.157Z,992.33
2023-07-08T10:16:53.185Z,992.28
2023-07-08T10:17:53.184Z,992.28
2023-07-08T10:18:53.053Z,992.23
2023-07-08T10:19:53.041Z,992.22
2023-07-08T10:20:53.037Z,992.24
2023-07-08T10:21:53.085Z,992.23
2023-07-08T10:22:53.017Z,992.17
2023-07-08T10:23:52.987Z,992.17
2023-07-08T10:24:53.042Z,992.19
2023-07-08T10:25:53.065Z,992.18
2023-07-08T10:26:53.025Z,992.22
2023-07-08T10:27:53.034Z,992.19
2023-07-08T10:28:53.003Z,992.24
2023-07-08T10:29:53.001Z,992.25
2023-07-08T10:30:52.888Z,992.17
2023-07-08T10:31:53.017Z,992.13
2023-07-08T10:32:52.987Z,992.17
2023-07-08T10:33:52.925Z,992.15
2023-07-08T10:34:52.868Z,992.08
2023-07-08T10:35:52.853Z,992.05
2023-07-08T10:36:52.838Z,992.08
2023-07-08T10:37:52.827Z,992.02
2023-07-08T10:38:52.826Z,991.98
2023-07-08T10:39:52.805Z,991.90
2023-07-08T10:40:52.800Z,991.90
2023-07-08T10:41:52.791Z,991.98
2023-07-08T10:42:52.808Z,992.00
2023-07-08T10:43:52.744Z,991.93
2023-07-08T10:44:52.775Z,991.92
2023-07-08T10:45:52.769Z,991.93
2023-07-08T10:46:52.729Z,991.94
2023-07-08T10:47:52.765Z,991.93
2023-07-08T10:48:52.736Z,991.95
2023-07-08T10:49:52.728Z,991.97
2023-07-08T10:50:52.661Z,992.01
2023-07-08T10:51:52.694Z,992.01
2023-07-08T10:52:52.677Z,991.94
2023-07-08T10:53:53.923Z,991.99
2023-07-08T10:54:52.648Z,991.90
2023-07-08T10:55:52.648Z,992.01
2023-07-08T10:56:52.644Z,991.88
2023-07-08T10:57:52.622Z,991.89
2023-07-08T10:58:52.613Z,991.87
2023-07-08T10:59:52.612Z,991.85
2023-07-08T11:00:52.574Z,991.86
2023-07-08T11:01:52.652Z,991.84
2023-07-08T11:02:52.614Z,991.80
2023-07-08T11:03:52.627Z,991.76
2023-07-08T11:04:52.571Z,991.75
2023-07-08T11:05:52.541Z,991.81
2023-07-08T11:06:52.508Z,991.87
2023-07-08T11:07:52.539Z,991.79
2023-07-08T11:08:52.562Z,991.82
2023-07-08T11:09:52.501Z,991.73
2023-07-08T11:10:57.304Z,991.80
2023-07-08T11:11:54.513Z,991.75
2023-07-08T11:12:52.450Z,991.78
2023-07-08T11:13:52.505Z,991.78
2023-07-08T11:14:52.489Z,991.80
2023-07-08T11:15:52.468Z,991.80
2023-07-08T11:16:52.440Z,991.80
2023-07-08T11:17:52.522Z,991.76
2023-07-08T11:18:52.443Z,991.76
2023-07-08T11:19:52.371Z,991.75
2023-07-08T11:20:52.434Z,991.74
2023-07-08T11:21:52.385Z,991.73
2023-07-08T11:22:52.380Z,991.77
2023-07-08T11:23:52.376Z,991.74
2023-07-08T11:24:52.369Z,991.73
2023-07-08T11:25:52.364Z,991.75
2023-07-08T11:26:52.346Z,991.69
2023-07-08T11:27:52.348Z,991.69
2023-07-08T11:28:52.285Z,991.69
2023-07-08T11:29:52.317Z,991.69
2023-07-08T11:30:52.323Z,991.71
2023-07-08T11:31:52.371Z,991.74
2023-07-08T11:32:52.244Z,991.55
2023-07-08T11:33:52.272Z,991.64
2023-07-08T11:34:52.313Z,991.60
2023-07-08T11:35:52.235Z,991.60
2023-07-08T11:36:52.280Z,991.55
2023-07-08T11:37:52.262Z,991.50
2023-07-08T11:38:52.203Z,991.50
2023-07-08T11:39:52.221Z,991.52
2023-07-08T11:40:52.203Z,991.55
2023-07-08T11:41:52.195Z,991.50
2023-07-08T11:42:59.907Z,991.55
2023-07-08T11:43:54.192Z,991.55
2023-07-08T11:44:52.182Z,991.48
2023-07-08T11:45:52.156Z,991.56
2023-07-08T11:46:52.159Z,991.52
2023-07-08T11:47:52.230Z,991.49
2023-07-08T11:48:52.106Z,991.44
2023-07-08T11:49:52.153Z,991.43
2023-07-08T11:50:52.107Z,991.45
2023-07-08T11:51:52.113Z,991.47
2023-07-08T11:52:52.101Z,991.36
2023-07-08T11:53:52.077Z,991.37
2023-07-08T11:54:52.075Z,991.45
2023-07-08T11:55:53.053Z,991.44
2023-07-08T11:56:53.046Z,991.45
2023-07-08T11:57:52.044Z,991.37
2023-07-08T11:58:52.041Z,991.40
2023-07-08T11:59:51.995Z,991.40
2023-07-08T12:00:53.607Z,991.38
2023-07-08T12:01:52.010Z,991.36
2023-07-08T12:02:52.070Z,991.38
2023-07-08T12:03:53.036Z,991.33
2023-07-08T12:04:51.995Z,991.30
2023-07-08T12:05:51.971Z,991.31
2023-07-08T12:06:52.011Z,991.35
2023-07-08T12:07:51.993Z,991.33
2023-07-08T12:08:55.085Z,991.24
2023-07-08T12:09:53.916Z,991.24
2023-07-08T12:10:51.969Z,991.31
2023-07-08T12:11:51.932Z,991.29
2023-07-08T12:12:51.896Z,991.33
2023-07-08T12:13:51.961Z,991.35
2023-07-08T12:14:51.901Z,991.30
2023-07-08T12:15:51.844Z,991.25
2023-07-08T12:16:51.914Z,991.24
2023-07-08T12:17:51.878Z,991.28
2023-07-08T12:18:51.828Z,991.26
2023-07-08T12:19:51.828Z,991.21
2023-07-08T12:20:51.847Z,991.24
2023-07-08T12:21:51.823Z,991.24
2023-07-08T12:22:51.808Z,991.29
2023-07-08T12:23:51.789Z,991.26
2023-07-08T12:24:51.819Z,991.30
2023-07-08T12:25:51.775Z,991.25
2023-07-08T12:26:51.753Z,991.22
2023-07-08T12:27:51.745Z,991.20
2023-07-08T12:28:51.751Z,991.22
2023-07-08T12:29:51.762Z,991.19
2023-07-08T12:30:51.729Z,991.20